Time;durP1;ratioP1;P1;durP2;ratioP2;P2;SDS_P1;SDS_P2;PMS_P1;PMS_P2;Temp;Humidity;BMP_temperature;BMP_pressure;BME280_temperature;BME280_humidity;BME280_pressure;Samples;Min_cycle;Max_cycle;Signal;HPM_P1;HPM_P2
2023/05/09 00:00:34;;;;;;;0.10;0.10;;;;;;;;;;5096990;28;20247;-73
2023/05/09 00:03:01;;;;;;;0.10;0.10;;;;;;;;;;5117440;28;20220;-73
2023/05/09 00:05:28;;;;;;;1.33;1.27;;;;;;;;;;5096830;28;20527;-73
2023/05/09 00:07:54;;;;;;;0.10;0.10;;;;;;;;;;5117614;28;20504;-72
2023/05/09 00:10:21;;;;;;;0.10;0.10;;;;;;;;;;5095863;28;20432;-73
2023/05/09 00:12:48;;;;;;;0.10;0.10;;;;;;;;;;5118521;28;20430;-72
2023/05/09 00:15:14;;;;;;;0.10;0.10;;;;;;;;;;5094909;28;20253;-73
2023/05/09 00:17:43;;;;;;;0.20;0.20;;;;;;;;;;5119350;28;20226;-72
2023/05/09 00:20:10;;;;;;;0.40;0.40;;;;;;;;;;5094038;28;20207;-73
2023/05/09 00:22:37;;;;;;;0.10;0.10;;;;;;;;;;5119335;28;20295;-72
2023/05/09 00:25:03;;;;;;;0.10;0.10;;;;;;;;;;5104306;28;20538;-73
2023/05/09 00:27:30;;;;;;;0.10;0.10;;;;;;;;;;5109500;28;20315;-73
2023/05/09 00:29:56;;;;;;;0.10;0.10;;;;;;;;;;5103854;28;20211;-73
2023/05/09 00:32:23;;;;;;;0.10;0.10;;;;;;;;;;5109434;28;20274;-73
2023/05/09 00:34:51;;;;;;;0.10;0.10;;;;;;;;;;5104130;28;20211;-73
2023/05/09 00:37:18;;;;;;;0.10;0.10;;;;;;;;;;5108872;28;20234;-72
2023/05/09 00:39:44;;;;;;;0.10;0.10;;;;;;;;;;5103675;28;20272;-73
2023/05/09 00:42:10;;;;;;;0.10;0.10;;;;;;;;;;5109392;28;20575;-73
2023/05/09 00:44:37;;;;;;;2.83;2.73;;;;;;;;;;5103629;28;20209;-72
2023/05/09 00:47:03;;;;;;;0.10;0.10;;;;;;;;;;5108765;28;20257;-72
2023/05/09 00:49:30;;;;;;;0.10;0.10;;;;;;;;;;5104430;28;20271;-72
2023/05/09 00:51:58;;;;;;;0.40;0.40;;;;;;;;;;5107642;28;20250;-72
2023/05/09 00:54:25;;;;;;;2.67;2.57;;;;;;;;;;5104874;28;20275;-72
2023/05/09 00:56:51;;;;;;;0.10;0.10;;;;;;;;;;5106884;28;20300;-72
2023/05/09 00:59:17;;;;;;;0.10;0.10;;;;;;;;;;5105928;28;20445;-74
2023/05/09 01:01:44;;;;;;;0.10;0.10;;;;;;;;;;5105900;28;20440;-72
2023/05/09 01:04:11;;;;;;;0.57;0.57;;;;;;;;;;5106854;28;20212;-72
2023/05/09 01:06:43;;;;;;;0.10;0.10;;;;;;;;;;5105183;28;20237;-72
2023/05/09 01:09:16;;;;;;;0.10;0.10;;;;;;;;;;5106796;28;20376;-72
2023/05/09 01:11:45;;;;;;;0.10;0.10;;;;;;;;;;5105707;28;20297;-72
2023/05/09 01:14:15;;;;;;;0.10;0.10;;;;;;;;;;5106401;28;20203;-72
2023/05/09 01:16:43;;;;;;;0.10;0.10;;;;;;;;;;5105463;28;20489;-73
2023/05/09 01:19:16;;;;;;;1.10;1.10;;;;;;;;;;5106881;28;20208;-72
2023/05/09 01:21:44;;;;;;;0.10;0.10;;;;;;;;;;5105622;28;20491;-72
2023/05/09 01:24:24;;;;;;;0.17;0.17;;;;;;;;;;5106719;28;20235;-72
2023/05/09 01:26:59;;;;;;;0.10;0.10;;;;;;;;;;5106665;28;20239;-72
2023/05/09 01:29:33;;;;;;;0.10;0.10;;;;;;;;;;5104343;28;20262;-72
2023/05/09 01:32:00;;;;;;;0.10;0.10;;;;;;;;;;5107643;28;20298;-72
2023/05/09 01:34:28;;;;;;;0.10;0.10;;;;;;;;;;5104100;28;20270;-72
2023/05/09 01:36:55;;;;;;;0.10;0.10;;;;;;;;;;5106977;28;20244;-73
2023/05/09 01:39:22;;;;;;;0.10;0.10;;;;;;;;;;5104693;28;20278;-73
2023/05/09 01:41:49;;;;;;;0.10;0.10;;;;;;;;;;5105996;28;20462;-73
2023/05/09 01:44:15;;;;;;;0.10;0.10;;;;;;;;;;5105852;28;20203;-73
2023/05/09 01:46:44;;;;;;;0.10;0.10;;;;;;;;;;5105033;28;20238;-73
2023/05/09 01:49:10;;;;;;;0.27;0.27;;;;;;;;;;5107340;28;20274;-73
2023/05/09 01:51:37;;;;;;;0.10;0.10;;;;;;;;;;5108371;28;20301;-73
2023/05/09 01:54:05;;;;;;;0.10;0.10;;;;;;;;;;5110785;28;20210;-73
2023/05/09 01:56:32;;;;;;;0.10;0.10;;;;;;;;;;5107570;28;20265;-73
2023/05/09 01:58:58;;;;;;;0.10;0.10;;;;;;;;;;5111679;28;20521;-73
2023/05/09 02:01:25;;;;;;;0.10;0.10;;;;;;;;;;5106504;28;20296;-73
2023/05/09 02:03:54;;;;;;;0.20;0.20;;;;;;;;;;5112186;28;20210;-73
2023/05/09 02:06:22;;;;;;;0.10;0.10;;;;;;;;;;5105965;28;20301;-73
2023/05/09 02:08:49;;;;;;;0.10;0.10;;;;;;;;;;5112893;28;20203;-73
2023/05/09 02:11:15;;;;;;;0.10;0.10;;;;;;;;;;5105035;28;20269;-73
2023/05/09 02:13:41;;;;;;;0.10;0.10;;;;;;;;;;5113484;28;20210;-73
2023/05/09 02:16:09;;;;;;;0.10;0.10;;;;;;;;;;5104177;28;20320;-73
2023/05/09 02:18:36;;;;;;;0.10;0.10;;;;;;;;;;5113971;28;20285;-73
2023/05/09 02:21:04;;;;;;;10.90;10.37;;;;;;;;;;5103408;28;20295;-73
2023/05/09 02:23:30;;;;;;;0.57;0.57;;;;;;;;;;5114870;28;20226;-73
2023/05/09 02:25:56;;;;;;;0.10;0.10;;;;;;;;;;5102506;28;20308;-73
2023/05/09 02:28:25;;;;;;;0.10;0.10;;;;;;;;;;5115376;28;20209;-73
2023/05/09 02:30:52;;;;;;;0.10;0.10;;;;;;;;;;5101793;28;20604;-73
2023/05/09 02:33:18;;;;;;;0.10;0.10;;;;;;;;;;5116291;28;20221;-73
2023/05/09 02:35:45;;;;;;;0.93;0.93;;;;;;;;;;5100739;28;20501;-73
2023/05/09 02:38:14;;;;;;;0.10;0.10;;;;;;;;;;5116467;28;20218;-73
2023/05/09 02:40:42;;;;;;;0.10;0.10;;;;;;;;;;5099994;28;20266;-72
2023/05/09 02:43:08;;;;;;;0.13;0.13;;;;;;;;;;5117312;28;20493;-72
2023/05/09 02:45:34;;;;;;;0.10;0.10;;;;;;;;;;5099104;28;20237;-73
2023/05/09 02:48:01;;;;;;;0.10;0.10;;;;;;;;;;5117972;28;20226;-73
2023/05/09 02:50:28;;;;;;;0.10;0.10;;;;;;;;;;5098466;28;20244;-72
2023/05/09 02:52:54;;;;;;;0.10;0.10;;;;;;;;;;5119059;28;20199;-73
2023/05/09 02:55:22;;;;;;;0.10;0.10;;;;;;;;;;5097344;28;20237;-73
2023/05/09 02:57:48;;;;;;;0.20;0.20;;;;;;;;;;5119531;28;20291;-73
2023/05/09 03:00:16;;;;;;;0.10;0.10;;;;;;;;;;5095772;28;20205;-73
2023/05/09 03:02:43;;;;;;;0.10;0.10;;;;;;;;;;5120310;28;20218;-73
2023/05/09 03:05:09;;;;;;;0.30;0.30;;;;;;;;;;5095459;28;20253;-73
2023/05/09 03:07:35;;;;;;;0.10;0.10;;;;;;;;;;5121263;28;20270;-73
2023/05/09 03:10:02;;;;;;;0.10;0.10;;;;;;;;;;5105482;28;20234;-73
2023/05/09 03:12:30;;;;;;;0.20;0.20;;;;;;;;;;5110892;28;20249;-73
2023/05/09 03:14:56;;;;;;;0.10;0.10;;;;;;;;;;5105364;28;20376;-73
2023/05/09 03:17:22;;;;;;;0.10;0.10;;;;;;;;;;5110735;28;20254;-73
2023/05/09 03:19:49;;;;;;;0.30;0.30;;;;;;;;;;5105456;28;20202;-73
2023/05/09 03:22:15;;;;;;;0.93;0.93;;;;;;;;;;5110613;28;20234;-73
2023/05/09 03:24:42;;;;;;;0.10;0.10;;;;;;;;;;5105036;28;20207;-73
2023/05/09 03:27:08;;;;;;;0.10;0.10;;;;;;;;;;5110699;28;20298;-73
2023/05/09 03:29:36;;;;;;;0.10;0.10;;;;;;;;;;5105166;28;20205;-73
2023/05/09 03:32:02;;;;;;;0.10;0.10;;;;;;;;;;5109946;28;20243;-73
2023/05/09 03:34:29;;;;;;;0.33;0.33;;;;;;;;;;5105737;28;20273;-73
2023/05/09 03:36:55;;;;;;;0.10;0.10;;;;;;;;;;5108960;28;20288;-73
2023/05/09 03:39:21;;;;;;;0.20;0.20;;;;;;;;;;5106339;28;20251;-73
2023/05/09 03:41:48;;;;;;;0.10;0.10;;;;;;;;;;5107640;28;20307;-73
2023/05/09 03:44:14;;;;;;;2.00;1.90;;;;;;;;;;5107153;28;20278;-73
2023/05/09 03:46:42;;;;;;;0.23;0.23;;;;;;;;;;5106568;28;20296;-73
2023/05/09 03:49:08;;;;;;;0.80;0.80;;;;;;;;;;5107981;28;20274;-73
2023/05/09 03:51:35;;;;;;;0.10;0.10;;;;;;;;;;5105764;28;20254;-73
2023/05/09 03:54:01;;;;;;;0.10;0.10;;;;;;;;;;5109052;28;20373;-73
2023/05/09 03:56:28;;;;;;;0.10;0.10;;;;;;;;;;5104523;28;20488;-73
2023/05/09 03:58:54;;;;;;;0.20;0.20;;;;;;;;;;5110075;28;20254;-72
2023/05/09 04:01:20;;;;;;;0.10;0.10;;;;;;;;;;5103499;28;20305;-73
2023/05/09 04:03:49;;;;;;;0.10;0.10;;;;;;;;;;5110340;28;20296;-73
2023/05/09 04:06:15;;;;;;;0.10;0.10;;;;;;;;;;5102325;28;20316;-73
2023/05/09 04:08:41;;;;;;;0.10;0.10;;;;;;;;;;5111782;28;20429;-74
2023/05/09 04:11:08;;;;;;;0.30;0.30;;;;;;;;;;5101685;28;20237;-73
2023/05/09 04:13:34;;;;;;;0.10;0.10;;;;;;;;;;5111863;28;20265;-73
2023/05/09 04:16:01;;;;;;;0.10;0.10;;;;;;;;;;5101038;28;20283;-72
2023/05/09 04:18:27;;;;;;;0.10;0.10;;;;;;;;;;5113010;28;20400;-73
2023/05/09 04:20:55;;;;;;;0.10;0.10;;;;;;;;;;5099963;28;20261;-72
2023/05/09 04:23:22;;;;;;;0.10;0.10;;;;;;;;;;5113564;28;20274;-73
2023/05/09 04:25:50;;;;;;;0.27;0.27;;;;;;;;;;5099192;28;20297;-73
2023/05/09 04:28:17;;;;;;;0.10;0.10;;;;;;;;;;5114327;28;20204;-73
2023/05/09 04:30:43;;;;;;;0.10;0.10;;;;;;;;;;5098214;28;20266;-73
2023/05/09 04:33:10;;;;;;;0.10;0.10;;;;;;;;;;5115154;28;20262;-73
2023/05/09 04:35:38;;;;;;;2.73;1.07;;;;;;;;;;5097531;28;20462;-73
2023/05/09 04:38:05;;;;;;;0.10;0.10;;;;;;;;;;5115543;28;20246;-73
2023/05/09 04:40:32;;;;;;;0.10;0.10;;;;;;;;;;5096708;28;20407;-73
2023/05/09 04:42:58;;;;;;;0.10;0.10;;;;;;;;;;5116533;28;20376;-73
2023/05/09 04:45:25;;;;;;;0.10;0.10;;;;;;;;;;5095892;28;20260;-73
2023/05/09 04:47:51;;;;;;;0.10;0.10;;;;;;;;;;5117214;28;20194;-73
2023/05/09 04:50:18;;;;;;;0.10;0.10;;;;;;;;;;5094643;28;20230;-73
2023/05/09 04:52:44;;;;;;;0.10;0.10;;;;;;;;;;5118009;28;20197;-73
2023/05/09 04:55:12;;;;;;;0.30;0.30;;;;;;;;;;5093516;28;20197;-73
2023/05/09 04:57:38;;;;;;;2.87;2.67;;;;;;;;;;5118808;28;20296;-73
2023/05/09 05:00:06;;;;;;;0.10;0.10;;;;;;;;;;5103890;28;20383;-73
2023/05/09 05:02:33;;;;;;;1.13;1.10;;;;;;;;;;5092047;28;20218;-73
2023/05/09 05:04:59;;;;;;;1.23;1.23;;;;;;;;;;5103821;28;20232;-73
2023/05/09 05:07:26;;;;;;;0.10;0.10;;;;;;;;;;5109004;28;20304;-72
2023/05/09 05:09:52;;;;;;;0.10;0.10;;;;;;;;;;5103440;28;20212;-72
2023/05/09 05:12:20;;;;;;;0.10;0.10;;;;;;;;;;5109037;28;20251;-73
2023/05/09 05:14:47;;;;;;;0.10;0.10;;;;;;;;;;5103367;28;20272;-72
2023/05/09 05:17:14;;;;;;;0.10;0.10;;;;;;;;;;5108960;28;20253;-73
2023/05/09 05:19:40;;;;;;;0.20;0.20;;;;;;;;;;5103537;28;20206;-73
2023/05/09 05:22:07;;;;;;;0.10;0.10;;;;;;;;;;5108801;28;20261;-74
2023/05/09 05:24:33;;;;;;;0.33;0.33;;;;;;;;;;5107001;28;20206;-72
2023/05/09 05:27:00;;;;;;;0.10;0.10;;;;;;;;;;5111957;28;20310;-72
2023/05/09 05:29:27;;;;;;;0.10;0.10;;;;;;;;;;5108343;28;20210;-73
2023/05/09 05:31:54;;;;;;;0.10;0.10;;;;;;;;;;5111052;28;20253;-73
2023/05/09 05:34:20;;;;;;;0.20;0.20;;;;;;;;;;5108935;28;20244;-73
2023/05/09 05:36:46;;;;;;;0.10;0.10;;;;;;;;;;5110005;28;20258;-73
2023/05/09 05:39:13;;;;;;;0.10;0.10;;;;;;;;;;5109771;28;20220;-72
2023/05/09 05:41:39;;;;;;;0.10;0.10;;;;;;;;;;5108833;28;20261;-72
2023/05/09 05:44:05;;;;;;;0.10;0.10;;;;;;;;;;5110970;28;20256;-72
2023/05/09 05:46:33;;;;;;;1.60;0.53;;;;;;;;;;5107868;28;20240;-73
2023/05/09 05:48:59;;;;;;;0.13;0.13;;;;;;;;;;5111914;28;20520;-72
2023/05/09 05:51:26;;;;;;;0.10;0.10;;;;;;;;;;5106988;28;20237;-72
2023/05/09 05:53:52;;;;;;;0.10;0.10;;;;;;;;;;5112294;28;20202;-72
2023/05/09 05:56:18;;;;;;;0.20;0.20;;;;;;;;;;5105938;28;20257;-72
2023/05/09 05:58:45;;;;;;;0.20;0.20;;;;;;;;;;5113299;28;20403;-73
2023/05/09 06:01:12;;;;;;;0.93;0.93;;;;;;;;;;5104403;28;20239;-73
2023/05/09 06:03:40;;;;;;;0.10;0.10;;;;;;;;;;5114297;28;20272;-73
2023/05/09 06:06:06;;;;;;;0.10;0.10;;;;;;;;;;5104135;28;20308;-72
2023/05/09 06:08:33;;;;;;;0.10;0.10;;;;;;;;;;5114926;28;20269;-73
2023/05/09 06:11:00;;;;;;;0.10;0.10;;;;;;;;;;5102974;28;20244;-72
2023/05/09 06:13:26;;;;;;;2.00;0.37;;;;;;;;;;5115321;28;20266;-73
2023/05/09 06:15:54;;;;;;;0.20;0.20;;;;;;;;;;5102276;28;20436;-73
2023/05/09 06:18:21;;;;;;;0.10;0.10;;;;;;;;;;5116459;28;20209;-73
2023/05/09 06:20:53;;;;;;;0.40;0.40;;;;;;;;;;5101074;28;20305;-73
2023/05/09 06:23:21;;;;;;;0.10;0.10;;;;;;;;;;5116445;28;20234;-73
2023/05/09 06:25:47;;;;;;;0.10;0.10;;;;;;;;;;5101339;28;20522;-73
2023/05/09 06:28:13;;;;;;;3.53;3.23;;;;;;;;;;5117067;28;20211;-73
2023/05/09 06:30:40;;;;;;;0.23;0.23;;;;;;;;;;5100065;28;20238;-73
2023/05/09 06:33:06;;;;;;;0.10;0.10;;;;;;;;;;5118003;28;20206;-73
2023/05/09 06:35:33;;;;;;;0.10;0.10;;;;;;;;;;5098248;28;20456;-73
2023/05/09 06:38:00;;;;;;;0.10;0.10;;;;;;;;;;5118631;28;20211;-73
2023/05/09 06:40:27;;;;;;;0.40;0.40;;;;;;;;;;5098279;28;20274;-72
2023/05/09 06:42:53;;;;;;;0.10;0.10;;;;;;;;;;5119539;28;20215;-73
2023/05/09 06:45:19;;;;;;;0.10;0.10;;;;;;;;;;5097141;28;20223;-73
2023/05/09 06:47:46;;;;;;;0.10;0.10;;;;;;;;;;5120154;28;20191;-73
2023/05/09 06:50:12;;;;;;;0.30;0.30;;;;;;;;;;5096044;28;20205;-73
2023/05/09 06:52:38;;;;;;;0.20;0.20;;;;;;;;;;5120979;28;20268;-73
2023/05/09 06:55:07;;;;;;;0.10;0.10;;;;;;;;;;5105788;28;20234;-73
2023/05/09 06:57:34;;;;;;;0.63;0.63;;;;;;;;;;5094101;28;20223;-72
2023/05/09 07:00:00;;;;;;;0.10;0.10;;;;;;;;;;5105718;28;20203;-74
2023/05/09 07:02:27;;;;;;;0.10;0.10;;;;;;;;;;5111117;28;20242;-73
2023/05/09 07:04:53;;;;;;;0.10;0.10;;;;;;;;;;5105486;28;20298;-72
2023/05/09 07:07:19;;;;;;;0.10;0.10;;;;;;;;;;5111045;28;20588;-72
2023/05/09 07:09:46;;;;;;;0.10;0.10;;;;;;;;;;5108557;28;20264;-81
2023/05/09 07:12:13;;;;;;;0.10;0.10;;;;;;;;;;5111073;28;20247;-80
2023/05/09 07:14:41;;;;;;;1.07;1.07;;;;;;;;;;5105479;28;20245;-80
2023/05/09 07:17:08;;;;;;;0.33;0.33;;;;;;;;;;5110838;28;20245;-80
2023/05/09 07:19:34;;;;;;;0.10;0.10;;;;;;;;;;5105297;28;20379;-79
2023/05/09 07:22:01;;;;;;;0.10;0.10;;;;;;;;;;5109975;28;20240;-80
2023/05/09 07:24:27;;;;;;;0.10;0.10;;;;;;;;;;5106024;28;20232;-77
2023/05/09 07:26:54;;;;;;;0.10;0.10;;;;;;;;;;5108971;28;20242;-80
2023/05/09 07:29:21;;;;;;;0.10;0.10;;;;;;;;;;5107077;28;20204;-79
2023/05/09 07:31:48;;;;;;;0.17;0.17;;;;;;;;;;5108214;28;20486;-84
2023/05/09 07:34:18;;;;;;;0.10;0.10;;;;;;;;;;5107991;28;20394;-82
2023/05/09 07:36:46;;;;;;;0.10;0.10;;;;;;;;;;5107442;28;20593;-83
2023/05/09 07:39:12;;;;;;;0.20;0.20;;;;;;;;;;5107770;28;20388;-82
2023/05/09 07:41:39;;;;;;;0.10;0.10;;;;;;;;;;5106660;28;20609;-83
2023/05/09 07:44:05;;;;;;;0.10;0.10;;;;;;;;;;5108697;28;20621;-83
2023/05/09 07:46:33;;;;;;;0.40;0.40;;;;;;;;;;5105801;28;20268;-83
2023/05/09 07:48:59;;;;;;;0.10;0.10;;;;;;;;;;5109433;28;20273;-83
2023/05/09 07:51:26;;;;;;;0.10;0.10;;;;;;;;;;5104792;28;20508;-84
2023/05/09 07:53:54;;;;;;;0.10;0.10;;;;;;;;;;5110388;28;20448;-83
2023/05/09 07:56:21;;;;;;;0.10;0.10;;;;;;;;;;5104040;28;20563;-83
2023/05/09 07:58:47;;;;;;;0.10;0.10;;;;;;;;;;5110865;28;20224;-84
2023/05/09 08:01:14;;;;;;;0.10;0.10;;;;;;;;;;5102928;28;20246;-83
2023/05/09 08:03:42;;;;;;;0.10;0.10;;;;;;;;;;5111674;28;20228;-84
2023/05/09 08:06:08;;;;;;;0.10;0.10;;;;;;;;;;5102453;28;20241;-82
2023/05/09 08:08:34;;;;;;;0.10;0.10;;;;;;;;;;5112420;28;20271;-84
2023/05/09 08:11:01;;;;;;;0.13;0.13;;;;;;;;;;5101443;28;20245;-83
2023/05/09 08:13:27;;;;;;;0.10;0.10;;;;;;;;;;5113434;28;20273;-84
2023/05/09 08:15:54;;;;;;;0.10;0.10;;;;;;;;;;5100241;28;20463;-84
2023/05/09 08:18:20;;;;;;;0.00;0.00;;;;;;;;;;5114354;28;20255;-84
2023/05/09 08:20:48;;;;;;;0.30;0.30;;;;;;;;;;5099247;28;20259;-85
2023/05/09 08:23:17;;;;;;;0.10;0.10;;;;;;;;;;5115032;28;20236;-85
2023/05/09 08:25:44;;;;;;;0.40;0.40;;;;;;;;;;5098672;28;20289;-84
2023/05/09 08:28:10;;;;;;;0.10;0.10;;;;;;;;;;5115296;28;20210;-83
2023/05/09 08:30:36;;;;;;;0.50;0.50;;;;;;;;;;5097565;28;20262;-82
2023/05/09 08:33:03;;;;;;;0.10;0.10;;;;;;;;;;5116280;28;20205;-81
2023/05/09 08:35:30;;;;;;;0.10;0.10;;;;;;;;;;5096809;28;20238;-81
2023/05/09 08:37:57;;;;;;;0.10;0.10;;;;;;;;;;5116675;28;20241;-81
2023/05/09 08:40:24;;;;;;;0.07;0.07;;;;;;;;;;5095528;28;20205;-80
2023/05/09 08:42:50;;;;;;;0.10;0.10;;;;;;;;;;5117575;28;20208;-81
2023/05/09 08:45:20;;;;;;;1.33;1.30;;;;;;;;;;5094796;28;20474;-80
2023/05/09 08:47:47;;;;;;;0.00;0.00;;;;;;;;;;5118127;28;20230;-81
2023/05/09 08:50:14;;;;;;;2.30;2.20;;;;;;;;;;5095168;28;20461;-82
2023/05/09 08:52:40;;;;;;;0.10;0.10;;;;;;;;;;5120287;28;20265;-84
2023/05/09 08:55:09;;;;;;;0.13;0.13;;;;;;;;;;5104137;28;20199;-77
2023/05/09 08:57:35;;;;;;;2.10;0.70;;;;;;;;;;5119322;28;20523;-85
2023/05/09 09:00:04;;;;;;;0.30;0.30;;;;;;;;;;5104162;28;20276;-85
2023/05/09 09:02:32;;;;;;;0.10;0.10;;;;;;;;;;5110222;28;20254;-85
2023/05/09 09:04:58;;;;;;;0.10;0.10;;;;;;;;;;5105358;28;20322;-83
2023/05/09 09:07:25;;;;;;;0.10;0.10;;;;;;;;;;5109731;28;20257;-84
2023/05/09 09:09:52;;;;;;;0.10;0.10;;;;;;;;;;5104381;28;20203;-84
2023/05/09 09:12:21;;;;;;;0.10;0.10;;;;;;;;;;5109652;28;20256;-85
2023/05/09 09:14:49;;;;;;;0.10;0.10;;;;;;;;;;5104441;28;20266;-84
2023/05/09 09:17:18;;;;;;;0.08;0.08;;;;;;;;;;5110435;28;20241;-84
2023/05/09 09:19:47;;;;;;;0.10;0.10;;;;;;;;;;5104413;28;20195;-83
2023/05/09 09:22:15;;;;;;;0.22;0.17;;;;;;;;;;5109347;28;20308;-81
2023/05/09 09:24:42;;;;;;;0.60;0.60;;;;;;;;;;5103453;28;20287;-79
2023/05/09 09:27:08;;;;;;;0.57;0.57;;;;;;;;;;5109109;28;20421;-80
2023/05/09 09:29:37;;;;;;;0.65;0.65;;;;;;;;;;5103361;28;20207;-80
2023/05/09 09:32:04;;;;;;;0.10;0.10;;;;;;;;;;5108548;28;20478;-80
2023/05/09 09:34:30;;;;;;;0.00;0.00;;;;;;;;;;5103768;28;20200;-80
2023/05/09 09:36:57;;;;;;;0.65;0.65;;;;;;;;;;5107465;28;20450;-80
2023/05/09 09:39:24;;;;;;;0.10;0.10;;;;;;;;;;5104607;28;20562;-81
2023/05/09 09:41:50;;;;;;;0.00;0.00;;;;;;;;;;5106212;28;20573;-79
2023/05/09 09:44:18;;;;;;;0.10;0.10;;;;;;;;;;5105521;28;20221;-81
2023/05/09 09:46:47;;;;;;;0.40;0.40;;;;;;;;;;5105543;28;20238;-81
2023/05/09 09:49:14;;;;;;;4.13;1.90;;;;;;;;;;5106239;28;20395;-81
2023/05/09 09:51:40;;;;;;;0.08;0.08;;;;;;;;;;5104944;28;20269;-80
2023/05/09 09:54:07;;;;;;;0.13;0.13;;;;;;;;;;5106621;28;20215;-80
2023/05/09 09:56:40;;;;;;;0.10;0.10;;;;;;;;;;5104099;28;20265;-81
2023/05/09 09:59:11;;;;;;;1.45;1.33;;;;;;;;;;5106648;28;20255;-80
2023/05/09 10:01:53;;;;;;;1.48;1.38;;;;;;;;;;5104412;28;20439;-80
2023/05/09 10:04:20;;;;;;;0.10;0.10;;;;;;;;;;5104967;28;20249;-80
2023/05/09 10:06:51;;;;;;;0.20;0.20;;;;;;;;;;5105594;28;20461;-78
2023/05/09 10:09:18;;;;;;;0.10;0.10;;;;;;;;;;5105108;28;20198;-80
2023/05/09 10:11:45;;;;;;;0.10;0.10;;;;;;;;;;5108692;28;20261;-81
2023/05/09 10:14:11;;;;;;;0.10;0.10;;;;;;;;;;5109937;28;20209;-82
2023/05/09 10:16:38;;;;;;;0.10;0.10;;;;;;;;;;5098176;28;20239;-83
2023/05/09 10:19:06;;;;;;;0.10;0.10;;;;;;;;;;5110489;28;20209;-83
2023/05/09 10:21:32;;;;;;;0.20;0.20;;;;;;;;;;5107267;28;20700;-82
2023/05/09 10:24:00;;;;;;;0.10;0.10;;;;;;;;;;5110824;28;20223;-82
2023/05/09 10:26:27;;;;;;;0.00;0.00;;;;;;;;;;5106395;28;20299;-82
2023/05/09 10:28:55;;;;;;;0.10;0.10;;;;;;;;;;5112026;28;20207;-79
2023/05/09 10:31:23;;;;;;;0.70;0.30;;;;;;;;;;5105664;28;20251;-75
2023/05/09 10:33:51;;;;;;;0.32;0.25;;;;;;;;;;5112442;28;20203;-78
2023/05/09 10:36:20;;;;;;;1.50;1.40;;;;;;;;;;5105748;28;20274;-75
2023/05/09 10:38:46;;;;;;;0.10;0.10;;;;;;;;;;5112389;28;20289;-75
2023/05/09 10:41:13;;;;;;;0.05;0.05;;;;;;;;;;5104340;28;20239;-77
2023/05/09 10:43:39;;;;;;;0.10;0.10;;;;;;;;;;5113367;28;20242;-77
2023/05/09 10:46:06;;;;;;;0.10;0.10;;;;;;;;;;5103532;28;20259;-77
2023/05/09 10:48:33;;;;;;;3.83;1.65;;;;;;;;;;5114080;28;20209;-77
2023/05/09 10:51:00;;;;;;;0.00;0.00;;;;;;;;;;5102384;28;20277;-79
2023/05/09 10:53:40;;;;;;;0.08;0.08;;;;;;;;;;5114863;28;20205;-76
2023/05/09 10:56:06;;;;;;;0.00;0.00;;;;;;;;;;5103231;28;20253;-80
2023/05/09 10:58:36;;;;;;;0.10;0.10;;;;;;;;;;5113703;28;20236;-76
2023/05/09 11:01:03;;;;;;;0.10;0.10;;;;;;;;;;5102667;28;20486;-77
2023/05/09 11:03:50;;;;;;;0.17;0.17;;;;;;;;;;5114395;28;20206;-77
2023/05/09 11:06:32;;;;;;;0.20;0.20;;;;;;;;;;5104450;28;20296;-75
2023/05/09 11:09:19;;;;;;;0.00;0.00;;;;;;;;;;5109993;28;20209;-75
2023/05/09 11:11:51;;;;;;;0.10;0.10;;;;;;;;;;5107870;28;20627;-76
2023/05/09 11:14:28;;;;;;;0.08;0.08;;;;;;;;;;5108015;28;20198;-76
2023/05/09 11:16:58;;;;;;;0.10;0.10;;;;;;;;;;5109223;28;20525;-76
2023/05/09 11:19:35;;;;;;;0.03;0.03;;;;;;;;;;5106858;28;20244;-76
2023/05/09 11:22:02;;;;;;;0.00;0.00;;;;;;;;;;5109827;28;20244;-76
2023/05/09 11:24:31;;;;;;;0.10;0.10;;;;;;;;;;5106081;28;20223;-76
2023/05/09 11:26:57;;;;;;;0.00;0.00;;;;;;;;;;5109353;28;20238;-75
2023/05/09 11:29:26;;;;;;;0.00;0.00;;;;;;;;;;5106673;28;20276;-76
2023/05/09 11:32:07;;;;;;;2.63;0.63;;;;;;;;;;5108545;28;20305;-76
2023/05/09 11:34:34;;;;;;;0.00;0.00;;;;;;;;;;5104121;28;20199;-76
2023/05/09 11:37:10;;;;;;;2.95;0.75;;;;;;;;;;5109531;28;20238;-76
2023/05/09 11:39:54;;;;;;;0.80;0.80;;;;;;;;;;5105285;28;20424;-79
2023/05/09 11:42:21;;;;;;;0.45;0.45;;;;;;;;;;5110444;28;20283;-76
2023/05/09 11:44:48;;;;;;;0.10;0.10;;;;;;;;;;5105156;28;20501;-77
2023/05/09 11:47:14;;;;;;;0.00;0.00;;;;;;;;;;5110396;28;20610;-74
2023/05/09 11:49:42;;;;;;;0.00;0.00;;;;;;;;;;5104785;28;20230;-75
2023/05/09 11:52:09;;;;;;;7.28;6.53;;;;;;;;;;5110206;28;20249;-75
2023/05/09 11:54:37;;;;;;;0.30;0.30;;;;;;;;;;5104669;28;20233;-75
2023/05/09 11:57:05;;;;;;;0.35;0.35;;;;;;;;;;5109449;28;20242;-75
2023/05/09 11:59:32;;;;;;;0.00;0.00;;;;;;;;;;5105240;28;20203;-74
2023/05/09 12:02:02;;;;;;;0.85;0.85;;;;;;;;;;5108393;28;20260;-73
2023/05/09 12:04:28;;;;;;;0.10;0.10;;;;;;;;;;5105873;28;20557;-74
2023/05/09 12:06:57;;;;;;;0.13;0.13;;;;;;;;;;5108317;28;20242;-74
2023/05/09 12:09:25;;;;;;;0.00;0.00;;;;;;;;;;5106030;28;20527;-74
2023/05/09 12:11:51;;;;;;;0.00;0.00;;;;;;;;;;5107702;28;20237;-75
2023/05/09 12:14:29;;;;;;;0.08;0.08;;;;;;;;;;5106371;28;20277;-75
2023/05/09 12:16:55;;;;;;;0.10;0.10;;;;;;;;;;5108020;28;20313;-76
2023/05/09 12:19:22;;;;;;;0.10;0.10;;;;;;;;;;5106120;28;20226;-75
2023/05/09 12:21:49;;;;;;;0.00;0.00;;;;;;;;;;5106997;28;20237;-73
2023/05/09 12:24:20;;;;;;;0.03;0.03;;;;;;;;;;5106529;28;20202;-75
2023/05/09 12:26:47;;;;;;;0.25;0.25;;;;;;;;;;5106648;28;20308;-75
2023/05/09 12:29:13;;;;;;;0.10;0.10;;;;;;;;;;5106837;28;20262;-75
2023/05/09 12:31:42;;;;;;;0.03;0.03;;;;;;;;;;5105554;28;20309;-75
2023/05/09 12:34:09;;;;;;;0.00;0.00;;;;;;;;;;5107004;28;20234;-75
2023/05/09 12:36:36;;;;;;;0.08;0.08;;;;;;;;;;5105196;28;20242;-75
2023/05/09 12:39:03;;;;;;;0.57;0.57;;;;;;;;;;5108025;28;20282;-75
2023/05/09 12:41:30;;;;;;;0.80;0.20;;;;;;;;;;5104277;28;20238;-76
2023/05/09 12:43:56;;;;;;;0.00;0.00;;;;;;;;;;5109016;28;20213;-76
2023/05/09 12:46:22;;;;;;;0.20;0.20;;;;;;;;;;5103343;28;20442;-76
2023/05/09 12:48:50;;;;;;;0.00;0.00;;;;;;;;;;5109787;28;20510;-76
2023/05/09 12:51:18;;;;;;;0.00;0.00;;;;;;;;;;5102494;28;20305;-76
2023/05/09 12:53:45;;;;;;;0.00;0.00;;;;;;;;;;5110072;28;20210;-75
2023/05/09 12:56:12;;;;;;;0.00;0.00;;;;;;;;;;5101861;28;20256;-75
2023/05/09 12:58:39;;;;;;;0.00;0.00;;;;;;;;;;5110979;28;20421;-75
2023/05/09 13:01:05;;;;;;;0.00;0.00;;;;;;;;;;5100996;28;20238;-75
2023/05/09 13:03:36;;;;;;;0.00;0.00;;;;;;;;;;5112062;28;20210;-75
2023/05/09 13:06:05;;;;;;;0.08;0.08;;;;;;;;;;5100466;28;20238;-75
2023/05/09 13:08:31;;;;;;;0.00;0.00;;;;;;;;;;5111952;28;20213;-74
2023/05/09 13:10:59;;;;;;;1.75;1.65;;;;;;;;;;5099851;28;20253;-74
2023/05/09 13:13:26;;;;;;;0.00;0.00;;;;;;;;;;5112801;28;20217;-76
2023/05/09 13:15:52;;;;;;;0.00;0.00;;;;;;;;;;5099707;28;20237;-78
2023/05/09 13:18:19;;;;;;;0.30;0.30;;;;;;;;;;5113530;28;20237;-78
2023/05/09 13:20:45;;;;;;;0.00;0.00;;;;;;;;;;5098364;28;20431;-78
2023/05/09 13:23:13;;;;;;;0.00;0.00;;;;;;;;;;5114407;28;20281;-79
2023/05/09 13:25:40;;;;;;;0.00;0.00;;;;;;;;;;5097244;28;20238;-79
2023/05/09 13:28:07;;;;;;;0.05;0.05;;;;;;;;;;5115076;28;20265;-79
2023/05/09 13:30:34;;;;;;;0.20;0.20;;;;;;;;;;5096719;28;20288;-80
2023/05/09 13:33:00;;;;;;;0.10;0.10;;;;;;;;;;5115739;28;20199;-79
2023/05/09 13:35:27;;;;;;;0.13;0.13;;;;;;;;;;5095664;28;20268;-79
2023/05/09 13:37:53;;;;;;;0.05;0.05;;;;;;;;;;5116591;28;20254;-79
2023/05/09 13:40:21;;;;;;;0.65;0.55;;;;;;;;;;5094451;28;20199;-79
2023/05/09 13:42:48;;;;;;;0.17;0.17;;;;;;;;;;5117360;28;20206;-78
2023/05/09 13:45:15;;;;;;;0.00;0.00;;;;;;;;;;5096451;28;20222;-78
2023/05/09 13:47:41;;;;;;;0.00;0.00;;;;;;;;;;5122023;28;20199;-79
2023/05/09 13:50:08;;;;;;;0.00;0.00;;;;;;;;;;5101324;28;20203;-79
2023/05/09 13:52:34;;;;;;;0.20;0.20;;;;;;;;;;5122700;28;20249;-79
2023/05/09 13:55:01;;;;;;;0.00;0.00;;;;;;;;;;5107377;28;20206;-80
2023/05/09 13:57:28;;;;;;;0.30;0.30;;;;;;;;;;5112404;28;20487;-80
2023/05/09 13:59:55;;;;;;;0.20;0.20;;;;;;;;;;5107202;28;20434;-80
2023/05/09 14:02:23;;;;;;;0.10;0.10;;;;;;;;;;5112550;28;20237;-80
2023/05/09 14:04:49;;;;;;;0.00;0.00;;;;;;;;;;5106734;28;20282;-80
2023/05/09 14:07:16;;;;;;;0.00;0.00;;;;;;;;;;5112246;28;20308;-80
2023/05/09 14:09:43;;;;;;;0.32;0.30;;;;;;;;;;5106729;28;20233;-79
2023/05/09 14:12:09;;;;;;;0.63;0.63;;;;;;;;;;5112319;28;20577;-80
2023/05/09 14:14:37;;;;;;;0.08;0.08;;;;;;;;;;5106508;28;20199;-80
2023/05/09 14:17:03;;;;;;;0.20;0.20;;;;;;;;;;5111615;28;20304;-81
2023/05/09 14:19:30;;;;;;;0.00;0.00;;;;;;;;;;5106984;28;20198;-80
2023/05/09 14:21:56;;;;;;;0.20;0.20;;;;;;;;;;5110439;28;20240;-80
2023/05/09 14:24:22;;;;;;;0.85;0.57;;;;;;;;;;5108243;28;20205;-80
2023/05/09 14:26:49;;;;;;;0.10;0.10;;;;;;;;;;5109185;28;20240;-80
2023/05/09 14:29:16;;;;;;;0.10;0.10;;;;;;;;;;5108713;28;20205;-80
2023/05/09 14:31:44;;;;;;;0.10;0.10;;;;;;;;;;5108501;28;20549;-79
2023/05/09 14:34:10;;;;;;;0.00;0.00;;;;;;;;;;5109846;28;20206;-78
2023/05/09 14:36:37;;;;;;;0.10;0.10;;;;;;;;;;5107613;28;20254;-80
2023/05/09 14:39:04;;;;;;;0.10;0.10;;;;;;;;;;5110198;28;20220;-79
2023/05/09 14:41:33;;;;;;;0.10;0.10;;;;;;;;;;5107023;28;20307;-80
2023/05/09 14:43:59;;;;;;;0.45;0.45;;;;;;;;;;5110627;28;20500;-79